sensor_id;sensor_type;location;lat;lon;timestamp;P1;durP1;ratioP1;P2;durP2;ratioP2
14900;SDS011;7542;49.078;9.194;2023-04-09T00:00:14;0.70;;;0.70;;
14900;SDS011;7542;49.078;9.194;2023-04-09T00:01:17;0.98;;;0.98;;
14900;SDS011;7542;49.078;9.194;2023-04-09T00:02:19;0.87;;;0.87;;
14900;SDS011;7542;49.078;9.194;2023-04-09T00:03:21;1.00;;;1.00;;
14900;SDS011;7542;49.078;9.194;2023-04-09T00:04:23;0.70;;;0.70;;
14900;SDS011;7542;49.078;9.194;2023-04-09T00:05:25;0.70;;;0.70;;
14900;SDS011;7542;49.078;9.194;2023-04-09T00:06:27;0.70;;;0.70;;
14900;SDS011;7542;49.078;9.194;2023-04-09T00:07:29;0.90;;;0.90;;
14900;SDS011;7542;49.078;9.194;2023-04-09T00:08:32;0.93;;;0.80;;
14900;SDS011;7542;49.078;9.194;2023-04-09T00:09:34;0.77;;;0.77;;
14900;SDS011;7542;49.078;9.194;2023-04-09T00:10:36;0.70;;;0.70;;
14900;SDS011;7542;49.078;9.194;2023-04-09T00:11:38;0.80;;;0.80;;
14900;SDS011;7542;49.078;9.194;2023-04-09T00:12:40;0.90;;;0.90;;
14900;SDS011;7542;49.078;9.194;2023-04-09T00:13:41;0.70;;;0.70;;
14900;SDS011;7542;49.078;9.194;2023-04-09T00:14:43;0.90;;;0.90;;
14900;SDS011;7542;49.078;9.194;2023-04-09T00:15:45;0.50;;;0.50;;
14900;SDS011;7542;49.078;9.194;2023-04-09T00:16:47;0.73;;;0.73;;
14900;SDS011;7542;49.078;9.194;2023-04-09T00:17:50;1.00;;;1.00;;
14900;SDS011;7542;49.078;9.194;2023-04-09T00:18:52;0.90;;;0.90;;
14900;SDS011;7542;49.078;9.194;2023-04-09T00:19:54;0.90;;;0.90;;
14900;SDS011;7542;49.078;9.194;2023-04-09T00:20:56;0.60;;;0.60;;
14900;SDS011;7542;49.078;9.194;2023-04-09T00:21:58;0.70;;;0.70;;
14900;SDS011;7542;49.078;9.194;2023-04-09T00:23:00;0.80;;;0.80;;
14900;SDS011;7542;49.078;9.194;2023-04-09T00:24:02;0.90;;;0.90;;
14900;SDS011;7542;49.078;9.194;2023-04-09T00:25:04;0.90;;;0.90;;
14900;SDS011;7542;49.078;9.194;2023-04-09T00:26:07;0.87;;;0.87;;
14900;SDS011;7542;49.078;9.194;2023-04-09T00:27:09;0.70;;;0.70;;
14900;SDS011;7542;49.078;9.194;2023-04-09T00:28:11;0.87;;;0.87;;
14900;SDS011;7542;49.078;9.194;2023-04-09T00:29:13;0.73;;;0.73;;
14900;SDS011;7542;49.078;9.194;2023-04-09T00:30:15;0.70;;;0.70;;
14900;SDS011;7542;49.078;9.194;2023-04-09T00:31:17;0.90;;;0.90;;
14900;SDS011;7542;49.078;9.194;2023-04-09T00:32:21;0.50;;;0.50;;
14900;SDS011;7542;49.078;9.194;2023-04-09T00:33:23;0.83;;;0.83;;
14900;SDS011;7542;49.078;9.194;2023-04-09T00:34:25;0.60;;;0.60;;
14900;SDS011;7542;49.078;9.194;2023-04-09T00:35:27;0.80;;;0.80;;
14900;SDS011;7542;49.078;9.194;2023-04-09T00:36:29;0.83;;;0.83;;
14900;SDS011;7542;49.078;9.194;2023-04-09T00:37:31;0.70;;;0.70;;
14900;SDS011;7542;49.078;9.194;2023-04-09T00:38:33;0.80;;;0.80;;
14900;SDS011;7542;49.078;9.194;2023-04-09T00:39:35;0.70;;;0.70;;
14900;SDS011;7542;49.078;9.194;2023-04-09T00:40:37;0.70;;;0.70;;
14900;SDS011;7542;49.078;9.194;2023-04-09T00:41:39;0.70;;;0.70;;
14900;SDS011;7542;49.078;9.194;2023-04-09T00:42:40;2.27;;;0.77;;
14900;SDS011;7542;49.078;9.194;2023-04-09T00:43:42;0.80;;;0.80;;
14900;SDS011;7542;49.078;9.194;2023-04-09T00:44:44;0.73;;;0.73;;
14900;SDS011;7542;49.078;9.194;2023-04-09T00:45:47;0.85;;;0.85;;
14900;SDS011;7542;49.078;9.194;2023-04-09T00:46:48;0.60;;;0.60;;
14900;SDS011;7542;49.078;9.194;2023-04-09T00:47:51;0.88;;;0.88;;
14900;SDS011;7542;49.078;9.194;2023-04-09T00:48:54;0.53;;;0.53;;
14900;SDS011;7542;49.078;9.194;2023-04-09T00:49:57;0.83;;;0.83;;
14900;SDS011;7542;49.078;9.194;2023-04-09T00:51:01;0.60;;;0.60;;
14900;SDS011;7542;49.078;9.194;2023-04-09T00:52:03;0.77;;;0.77;;
14900;SDS011;7542;49.078;9.194;2023-04-09T00:53:05;1.10;;;1.10;;
14900;SDS011;7542;49.078;9.194;2023-04-09T00:54:09;0.83;;;0.83;;
14900;SDS011;7542;49.078;9.194;2023-04-09T00:55:11;0.83;;;0.83;;
14900;SDS011;7542;49.078;9.194;2023-04-09T00:56:14;0.70;;;0.70;;
14900;SDS011;7542;49.078;9.194;2023-04-09T00:57:18;0.90;;;0.90;;
14900;SDS011;7542;49.078;9.194;2023-04-09T00:58:23;0.70;;;0.70;;
14900;SDS011;7542;49.078;9.194;2023-04-09T00:59:25;0.70;;;0.70;;
14900;SDS011;7542;49.078;9.194;2023-04-09T01:00:28;0.63;;;0.63;;
14900;SDS011;7542;49.078;9.194;2023-04-09T01:01:30;0.83;;;0.83;;
14900;SDS011;7542;49.078;9.194;2023-04-09T01:02:33;0.80;;;0.80;;
14900;SDS011;7542;49.078;9.194;2023-04-09T01:03:37;0.70;;;0.70;;
14900;SDS011;7542;49.078;9.194;2023-04-09T01:04:39;1.20;;;0.83;;
14900;SDS011;7542;49.078;9.194;2023-04-09T01:05:49;0.70;;;0.70;;
14900;SDS011;7542;49.078;9.194;2023-04-09T01:07:21;0.73;;;0.73;;
14900;SDS011;7542;49.078;9.194;2023-04-09T01:08:53;0.70;;;0.70;;
14900;SDS011;7542;49.078;9.194;2023-04-09T01:11:02;0.70;;;0.70;;
14900;SDS011;7542;49.078;9.194;2023-04-09T01:12:30;0.83;;;0.83;;
14900;SDS011;7542;49.078;9.194;2023-04-09T01:13:47;0.70;;;0.70;;
14900;SDS011;7542;49.078;9.194;2023-04-09T01:15:09;0.70;;;0.70;;
14900;SDS011;7542;49.078;9.194;2023-04-09T01:16:22;0.70;;;0.70;;
14900;SDS011;7542;49.078;9.194;2023-04-09T01:17:34;0.90;;;0.90;;
14900;SDS011;7542;49.078;9.194;2023-04-09T01:18:55;0.60;;;0.60;;
14900;SDS011;7542;49.078;9.194;2023-04-09T01:20:16;0.87;;;0.77;;
14900;SDS011;7542;49.078;9.194;2023-04-09T01:21:32;0.70;;;0.70;;
14900;SDS011;7542;49.078;9.194;2023-04-09T01:24:35;0.63;;;0.63;;
14900;SDS011;7542;49.078;9.194;2023-04-09T01:26:07;0.60;;;0.60;;
14900;SDS011;7542;49.078;9.194;2023-04-09T01:27:21;0.80;;;0.80;;
14900;SDS011;7542;49.078;9.194;2023-04-09T01:29:48;0.93;;;0.93;;
14900;SDS011;7542;49.078;9.194;2023-04-09T01:30:58;0.70;;;0.70;;
14900;SDS011;7542;49.078;9.194;2023-04-09T01:32:04;0.63;;;0.63;;
14900;SDS011;7542;49.078;9.194;2023-04-09T01:33:08;0.80;;;0.80;;
14900;SDS011;7542;49.078;9.194;2023-04-09T01:34:12;0.83;;;0.83;;
14900;SDS011;7542;49.078;9.194;2023-04-09T01:35:16;0.77;;;0.77;;
14900;SDS011;7542;49.078;9.194;2023-04-09T01:36:20;0.77;;;0.77;;
14900;SDS011;7542;49.078;9.194;2023-04-09T01:37:25;0.60;;;0.60;;
14900;SDS011;7542;49.078;9.194;2023-04-09T01:38:27;0.70;;;0.70;;
14900;SDS011;7542;49.078;9.194;2023-04-09T01:39:30;0.70;;;0.70;;
14900;SDS011;7542;49.078;9.194;2023-04-09T01:40:33;0.90;;;0.90;;
14900;SDS011;7542;49.078;9.194;2023-04-09T01:41:35;0.93;;;0.93;;
14900;SDS011;7542;49.078;9.194;2023-04-09T01:42:40;0.70;;;0.70;;
14900;SDS011;7542;49.078;9.194;2023-04-09T01:43:43;0.70;;;0.70;;
14900;SDS011;7542;49.078;9.194;2023-04-09T01:44:47;0.60;;;0.60;;
14900;SDS011;7542;49.078;9.194;2023-04-09T01:45:50;0.73;;;0.73;;
14900;SDS011;7542;49.078;9.194;2023-04-09T01:46:54;0.73;;;0.73;;
14900;SDS011;7542;49.078;9.194;2023-04-09T01:47:59;0.77;;;0.77;;
14900;SDS011;7542;49.078;9.194;2023-04-09T01:49:03;0.60;;;0.60;;
14900;SDS011;7542;49.078;9.194;2023-04-09T01:50:07;0.73;;;0.73;;
14900;SDS011;7542;49.078;9.194;2023-04-09T01:51:11;1.40;;;0.87;;
14900;SDS011;7542;49.078;9.194;2023-04-09T01:52:17;0.70;;;0.70;;
14900;SDS011;7542;49.078;9.194;2023-04-09T01:53:20;0.70;;;0.70;;
14900;SDS011;7542;49.078;9.194;2023-04-09T01:54:22;1.00;;;1.00;;
14900;SDS011;7542;49.078;9.194;2023-04-09T01:55:25;0.57;;;0.57;;
14900;SDS011;7542;49.078;9.194;2023-04-09T01:56:27;0.70;;;0.70;;
14900;SDS011;7542;49.078;9.194;2023-04-09T01:57:39;0.70;;;0.70;;
14900;SDS011;7542;49.078;9.194;2023-04-09T01:58:41;0.60;;;0.60;;
14900;SDS011;7542;49.078;9.194;2023-04-09T01:59:43;0.80;;;0.80;;
14900;SDS011;7542;49.078;9.194;2023-04-09T02:00:45;1.00;;;0.80;;
14900;SDS011;7542;49.078;9.194;2023-04-09T02:01:52;0.70;;;0.70;;
14900;SDS011;7542;49.078;9.194;2023-04-09T02:03:11;0.63;;;0.63;;
14900;SDS011;7542;49.078;9.194;2023-04-09T02:05:35;1.20;;;0.80;;
14900;SDS011;7542;49.078;9.194;2023-04-09T02:06:58;0.77;;;0.77;;
14900;SDS011;7542;49.078;9.194;2023-04-09T02:08:07;0.67;;;0.67;;
14900;SDS011;7542;49.078;9.194;2023-04-09T02:09:17;0.90;;;0.90;;
14900;SDS011;7542;49.078;9.194;2023-04-09T02:10:23;1.00;;;1.00;;
14900;SDS011;7542;49.078;9.194;2023-04-09T02:11:31;0.60;;;0.60;;
14900;SDS011;7542;49.078;9.194;2023-04-09T02:12:35;0.60;;;0.60;;
14900;SDS011;7542;49.078;9.194;2023-04-09T02:13:39;0.90;;;0.90;;
14900;SDS011;7542;49.078;9.194;2023-04-09T02:14:45;0.67;;;0.67;;
14900;SDS011;7542;49.078;9.194;2023-04-09T02:15:51;0.67;;;0.67;;
14900;SDS011;7542;49.078;9.194;2023-04-09T02:16:54;0.80;;;0.80;;
14900;SDS011;7542;49.078;9.194;2023-04-09T02:17:57;0.77;;;0.77;;
14900;SDS011;7542;49.078;9.194;2023-04-09T02:18:59;1.00;;;1.00;;
14900;SDS011;7542;49.078;9.194;2023-04-09T02:20:01;0.90;;;0.90;;
14900;SDS011;7542;49.078;9.194;2023-04-09T02:21:04;0.80;;;0.80;;
14900;SDS011;7542;49.078;9.194;2023-04-09T02:22:07;1.00;;;1.00;;
14900;SDS011;7542;49.078;9.194;2023-04-09T02:23:10;0.80;;;0.80;;
14900;SDS011;7542;49.078;9.194;2023-04-09T02:24:11;1.00;;;1.00;;
14900;SDS011;7542;49.078;9.194;2023-04-09T02:25:14;0.60;;;0.60;;
14900;SDS011;7542;49.078;9.194;2023-04-09T02:26:17;0.70;;;0.70;;
14900;SDS011;7542;49.078;9.194;2023-04-09T02:27:19;0.80;;;0.80;;
14900;SDS011;7542;49.078;9.194;2023-04-09T02:28:21;0.70;;;0.70;;
14900;SDS011;7542;49.078;9.194;2023-04-09T02:29:23;0.80;;;0.80;;
14900;SDS011;7542;49.078;9.194;2023-04-09T02:30:28;0.80;;;0.80;;
14900;SDS011;7542;49.078;9.194;2023-04-09T02:31:30;0.90;;;0.90;;
14900;SDS011;7542;49.078;9.194;2023-04-09T02:32:32;0.90;;;0.90;;
14900;SDS011;7542;49.078;9.194;2023-04-09T02:33:34;0.60;;;0.60;;
14900;SDS011;7542;49.078;9.194;2023-04-09T02:34:36;0.70;;;0.70;;
14900;SDS011;7542;49.078;9.194;2023-04-09T02:35:38;0.83;;;0.83;;
14900;SDS011;7542;49.078;9.194;2023-04-09T02:36:40;0.80;;;0.80;;
14900;SDS011;7542;49.078;9.194;2023-04-09T02:37:42;0.80;;;0.80;;
14900;SDS011;7542;49.078;9.194;2023-04-09T02:38:44;0.73;;;0.73;;
14900;SDS011;7542;49.078;9.194;2023-04-09T02:39:46;0.80;;;0.80;;
14900;SDS011;7542;49.078;9.194;2023-04-09T02:40:48;0.90;;;0.90;;
14900;SDS011;7542;49.078;9.194;2023-04-09T02:41:50;0.70;;;0.70;;
14900;SDS011;7542;49.078;9.194;2023-04-09T02:42:53;0.73;;;0.73;;
14900;SDS011;7542;49.078;9.194;2023-04-09T02:43:55;0.80;;;0.80;;
14900;SDS011;7542;49.078;9.194;2023-04-09T02:44:57;0.70;;;0.70;;
14900;SDS011;7542;49.078;9.194;2023-04-09T02:45:59;1.60;;;0.97;;
14900;SDS011;7542;49.078;9.194;2023-04-09T02:47:01;0.73;;;0.73;;
14900;SDS011;7542;49.078;9.194;2023-04-09T02:48:03;0.63;;;0.63;;
14900;SDS011;7542;49.078;9.194;2023-04-09T02:49:06;0.90;;;0.90;;
14900;SDS011;7542;49.078;9.194;2023-04-09T02:50:08;0.80;;;0.80;;
14900;SDS011;7542;49.078;9.194;2023-04-09T02:51:10;0.70;;;0.70;;
14900;SDS011;7542;49.078;9.194;2023-04-09T02:52:13;0.87;;;0.87;;
14900;SDS011;7542;49.078;9.194;2023-04-09T02:53:15;0.90;;;0.90;;
14900;SDS011;7542;49.078;9.194;2023-04-09T02:54:17;0.90;;;0.90;;
14900;SDS011;7542;49.078;9.194;2023-04-09T02:55:20;1.00;;;1.00;;
14900;SDS011;7542;49.078;9.194;2023-04-09T02:56:22;0.80;;;0.80;;
14900;SDS011;7542;49.078;9.194;2023-04-09T02:57:24;0.80;;;0.80;;
14900;SDS011;7542;49.078;9.194;2023-04-09T02:58:26;0.80;;;0.80;;
14900;SDS011;7542;49.078;9.194;2023-04-09T02:59:28;0.60;;;0.60;;
14900;SDS011;7542;49.078;9.194;2023-04-09T03:00:33;0.53;;;0.53;;
14900;SDS011;7542;49.078;9.194;2023-04-09T03:01:35;0.77;;;0.77;;
14900;SDS011;7542;49.078;9.194;2023-04-09T03:02:37;0.83;;;0.83;;
14900;SDS011;7542;49.078;9.194;2023-04-09T03:03:39;0.70;;;0.70;;
14900;SDS011;7542;49.078;9.194;2023-04-09T03:04:42;0.73;;;0.73;;
14900;SDS011;7542;49.078;9.194;2023-04-09T03:05:44;0.67;;;0.67;;
14900;SDS011;7542;49.078;9.194;2023-04-09T03:06:46;0.63;;;0.63;;
14900;SDS011;7542;49.078;9.194;2023-04-09T03:07:50;0.77;;;0.77;;
14900;SDS011;7542;49.078;9.194;2023-04-09T03:08:52;0.80;;;0.80;;
14900;SDS011;7542;49.078;9.194;2023-04-09T03:09:54;0.70;;;0.70;;
14900;SDS011;7542;49.078;9.194;2023-04-09T03:10:55;0.90;;;0.90;;
14900;SDS011;7542;49.078;9.194;2023-04-09T03:11:57;0.70;;;0.70;;
14900;SDS011;7542;49.078;9.194;2023-04-09T03:13:00;0.80;;;0.80;;
14900;SDS011;7542;49.078;9.194;2023-04-09T03:14:01;0.67;;;0.67;;
14900;SDS011;7542;49.078;9.194;2023-04-09T03:15:04;0.70;;;0.70;;
14900;SDS011;7542;49.078;9.194;2023-04-09T03:16:07;0.70;;;0.70;;
14900;SDS011;7542;49.078;9.194;2023-04-09T03:17:10;0.70;;;0.70;;
14900;SDS011;7542;49.078;9.194;2023-04-09T03:18:12;0.90;;;0.90;;
14900;SDS011;7542;49.078;9.194;2023-04-09T03:19:14;1.00;;;1.00;;
14900;SDS011;7542;49.078;9.194;2023-04-09T03:20:18;0.80;;;0.80;;
14900;SDS011;7542;49.078;9.194;2023-04-09T03:21:20;0.80;;;0.80;;
14900;SDS011;7542;49.078;9.194;2023-04-09T03:22:22;1.00;;;1.00;;
14900;SDS011;7542;49.078;9.194;2023-04-09T03:23:24;0.80;;;0.80;;
14900;SDS011;7542;49.078;9.194;2023-04-09T03:24:26;0.80;;;0.80;;
14900;SDS011;7542;49.078;9.194;2023-04-09T03:25:28;0.80;;;0.80;;
14900;SDS011;7542;49.078;9.194;2023-04-09T03:26:30;0.80;;;0.80;;
14900;SDS011;7542;49.078;9.194;2023-04-09T03:27:36;1.03;;;1.03;;
14900;SDS011;7542;49.078;9.194;2023-04-09T03:28:38;0.97;;;0.50;;
14900;SDS011;7542;49.078;9.194;2023-04-09T03:29:40;0.90;;;0.90;;
14900;SDS011;7542;49.078;9.194;2023-04-09T03:30:42;0.73;;;0.73;;
14900;SDS011;7542;49.078;9.194;2023-04-09T03:31:44;0.83;;;0.83;;
14900;SDS011;7542;49.078;9.194;2023-04-09T03:32:46;0.70;;;0.70;;
14900;SDS011;7542;49.078;9.194;2023-04-09T03:33:48;0.80;;;0.80;;
14900;SDS011;7542;49.078;9.194;2023-04-09T03:34:53;0.80;;;0.80;;
14900;SDS011;7542;49.078;9.194;2023-04-09T03:35:54;0.80;;;0.80;;
14900;SDS011;7542;49.078;9.194;2023-04-09T03:36:57;0.97;;;0.97;;
14900;SDS011;7542;49.078;9.194;2023-04-09T03:37:59;0.93;;;0.93;;
14900;SDS011;7542;49.078;9.194;2023-04-09T03:39:02;0.80;;;0.80;;
14900;SDS011;7542;49.078;9.194;2023-04-09T03:40:04;0.70;;;0.70;;
14900;SDS011;7542;49.078;9.194;2023-04-09T03:41:07;0.90;;;0.90;;
14900;SDS011;7542;49.078;9.194;2023-04-09T03:42:10;0.80;;;0.80;;
14900;SDS011;7542;49.078;9.194;2023-04-09T03:43:12;1.10;;;1.00;;
14900;SDS011;7542;49.078;9.194;2023-04-09T03:44:16;0.80;;;0.80;;
14900;SDS011;7542;49.078;9.194;2023-04-09T03:45:19;0.70;;;0.70;;
14900;SDS011;7542;49.078;9.194;2023-04-09T03:46:21;0.60;;;0.60;;
14900;SDS011;7542;49.078;9.194;2023-04-09T03:47:23;0.83;;;0.83;;
14900;SDS011;7542;49.078;9.194;2023-04-09T03:48:25;1.00;;;1.00;;
14900;SDS011;7542;49.078;9.194;2023-04-09T03:49:27;0.70;;;0.70;;
14900;SDS011;7542;49.078;9.194;2023-04-09T03:50:29;1.00;;;1.00;;
14900;SDS011;7542;49.078;9.194;2023-04-09T03:51:31;0.90;;;0.90;;
14900;SDS011;7542;49.078;9.194;2023-04-09T03:52:33;0.67;;;0.67;;
14900;SDS011;7542;49.078;9.194;2023-04-09T03:53:35;0.90;;;0.90;;
14900;SDS011;7542;49.078;9.194;2023-04-09T03:54:38;0.80;;;0.80;;
14900;SDS011;7542;49.078;9.194;2023-04-09T03:55:40;0.70;;;0.70;;
14900;SDS011;7542;49.078;9.194;2023-04-09T03:56:42;0.87;;;0.87;;
14900;SDS011;7542;49.078;9.194;2023-04-09T03:57:44;0.90;;;0.90;;
14900;SDS011;7542;49.078;9.194;2023-04-09T03:58:46;0.93;;;0.93;;
14900;SDS011;7542;49.078;9.194;2023-04-09T03:59:50;1.10;;;1.10;;
14900;SDS011;7542;49.078;9.194;2023-04-09T04:00:52;0.80;;;0.80;;
14900;SDS011;7542;49.078;9.194;2023-04-09T04:01:54;0.87;;;0.87;;
14900;SDS011;7542;49.078;9.194;2023-04-09T04:02:56;0.90;;;0.90;;
14900;SDS011;7542;49.078;9.194;2023-04-09T04:04:00;0.80;;;0.80;;
14900;SDS011;7542;49.078;9.194;2023-04-09T04:05:02;0.83;;;0.83;;
14900;SDS011;7542;49.078;9.194;2023-04-09T04:06:05;0.90;;;0.90;;
14900;SDS011;7542;49.078;9.194;2023-04-09T04:07:07;0.80;;;0.80;;
14900;SDS011;7542;49.078;9.194;2023-04-09T04:08:09;0.90;;;0.90;;
14900;SDS011;7542;49.078;9.194;2023-04-09T04:09:11;0.73;;;0.73;;
14900;SDS011;7542;49.078;9.194;2023-04-09T04:10:13;0.83;;;0.83;;
14900;SDS011;7542;49.078;9.194;2023-04-09T04:11:15;0.90;;;0.90;;
14900;SDS011;7542;49.078;9.194;2023-04-09T04:12:17;0.90;;;0.90;;
14900;SDS011;7542;49.078;9.194;2023-04-09T04:13:19;0.70;;;0.70;;
14900;SDS011;7542;49.078;9.194;2023-04-09T04:14:22;0.87;;;0.87;;
14900;SDS011;7542;49.078;9.194;2023-04-09T04:15:24;0.90;;;0.90;;
14900;SDS011;7542;49.078;9.194;2023-04-09T04:16:26;0.80;;;0.80;;
14900;SDS011;7542;49.078;9.194;2023-04-09T04:17:28;0.70;;;0.70;;
14900;SDS011;7542;49.078;9.194;2023-04-09T04:18:30;0.67;;;0.67;;
14900;SDS011;7542;49.078;9.194;2023-04-09T04:19:32;1.00;;;1.00;;
14900;SDS011;7542;49.078;9.194;2023-04-09T04:20:34;0.97;;;0.97;;
14900;SDS011;7542;49.078;9.194;2023-04-09T04:21:37;0.60;;;0.60;;
14900;SDS011;7542;49.078;9.194;2023-04-09T04:22:39;0.97;;;0.97;;
14900;SDS011;7542;49.078;9.194;2023-04-09T04:23:41;1.00;;;1.00;;
14900;SDS011;7542;49.078;9.194;2023-04-09T04:24:44;0.70;;;0.70;;
14900;SDS011;7542;49.078;9.194;2023-04-09T04:25:46;0.80;;;0.80;;
14900;SDS011;7542;49.078;9.194;2023-04-09T04:26:47;0.80;;;0.80;;
14900;SDS011;7542;49.078;9.194;2023-04-09T04:27:49;0.80;;;0.80;;
14900;SDS011;7542;49.078;9.194;2023-04-09T04:28:51;0.90;;;0.90;;
14900;SDS011;7542;49.078;9.194;2023-04-09T04:29:55;0.80;;;0.80;;
14900;SDS011;7542;49.078;9.194;2023-04-09T04:30:59;0.97;;;0.83;;
14900;SDS011;7542;49.078;9.194;2023-04-09T04:32:01;0.80;;;0.80;;
14900;SDS011;7542;49.078;9.194;2023-04-09T04:33:03;0.83;;;0.83;;
14900;SDS011;7542;49.078;9.194;2023-04-09T04:34:05;0.80;;;0.80;;
14900;SDS011;7542;49.078;9.194;2023-04-09T04:35:07;0.80;;;0.80;;
14900;SDS011;7542;49.078;9.194;2023-04-09T04:36:10;0.87;;;0.87;;
14900;SDS011;7542;49.078;9.194;2023-04-09T04:37:14;0.80;;;0.80;;
14900;SDS011;7542;49.078;9.194;2023-04-09T04:38:16;0.90;;;0.90;;
14900;SDS011;7542;49.078;9.194;2023-04-09T04:39:18;0.93;;;0.93;;
14900;SDS011;7542;49.078;9.194;2023-04-09T04:40:20;1.00;;;1.00;;
14900;SDS011;7542;49.078;9.194;2023-04-09T04:41:22;0.90;;;0.90;;
14900;SDS011;7542;49.078;9.194;2023-04-09T04:42:24;0.80;;;0.80;;
14900;SDS011;7542;49.078;9.194;2023-04-09T04:43:26;0.80;;;0.80;;
14900;SDS011;7542;49.078;9.194;2023-04-09T04:44:28;0.70;;;0.70;;
14900;SDS011;7542;49.078;9.194;2023-04-09T04:45:30;0.80;;;0.80;;
14900;SDS011;7542;49.078;9.194;2023-04-09T04:46:32;1.00;;;1.00;;
14900;SDS011;7542;49.078;9.194;2023-04-09T04:47:34;0.80;;;0.80;;
14900;SDS011;7542;49.078;9.194;2023-04-09T04:48:36;0.80;;;0.80;;
14900;SDS011;7542;49.078;9.194;2023-04-09T04:49:38;0.83;;;0.83;;
14900;SDS011;7542;49.078;9.194;2023-04-09T04:50:40;1.03;;;1.03;;
14900;SDS011;7542;49.078;9.194;2023-04-09T04:51:42;0.77;;;0.77;;
14900;SDS011;7542;49.078;9.194;2023-04-09T04:52:45;0.80;;;0.80;;
14900;SDS011;7542;49.078;9.194;2023-04-09T04:53:46;0.77;;;0.77;;
14900;SDS011;7542;49.078;9.194;2023-04-09T04:54:49;0.80;;;0.80;;
14900;SDS011;7542;49.078;9.194;2023-04-09T04:55:51;1.00;;;1.00;;
14900;SDS011;7542;49.078;9.194;2023-04-09T04:56:53;1.00;;;1.00;;
14900;SDS011;7542;49.078;9.194;2023-04-09T04:57:56;0.80;;;0.80;;
14900;SDS011;7542;49.078;9.194;2023-04-09T04:58:59;0.90;;;0.90;;
14900;SDS011;7542;49.078;9.194;2023-04-09T05:00:00;0.60;;;0.60;;
14900;SDS011;7542;49.078;9.194;2023-04-09T05:01:02;0.90;;;0.90;;
14900;SDS011;7542;49.078;9.194;2023-04-09T05:02:05;0.80;;;0.80;;
14900;SDS011;7542;49.078;9.194;2023-04-09T05:03:08;0.80;;;0.80;;
14900;SDS011;7542;49.078;9.194;2023-04-09T05:04:10;0.80;;;0.80;;
14900;SDS011;7542;49.078;9.194;2023-04-09T05:05:12;0.67;;;0.67;;
14900;SDS011;7542;49.078;9.194;2023-04-09T05:06:14;0.80;;;0.80;;
14900;SDS011;7542;49.078;9.194;2023-04-09T05:07:16;1.00;;;1.00;;
14900;SDS011;7542;49.078;9.194;2023-04-09T05:08:18;0.90;;;0.90;;
14900;SDS011;7542;49.078;9.194;2023-04-09T05:09:21;1.73;;;1.00;;
14900;SDS011;7542;49.078;9.194;2023-04-09T05:10:22;1.10;;;1.10;;
14900;SDS011;7542;49.078;9.194;2023-04-09T05:11:25;0.67;;;0.67;;
14900;SDS011;7542;49.078;9.194;2023-04-09T05:12:31;1.00;;;1.00;;
14900;SDS011;7542;49.078;9.194;2023-04-09T05:13:33;0.90;;;0.90;;
14900;SDS011;7542;49.078;9.194;2023-04-09T05:14:36;1.07;;;1.07;;
14900;SDS011;7542;49.078;9.194;2023-04-09T05:15:38;0.90;;;0.90;;
14900;SDS011;7542;49.078;9.194;2023-04-09T05:16:41;0.80;;;0.80;;
14900;SDS011;7542;49.078;9.194;2023-04-09T05:17:44;0.80;;;0.80;;
14900;SDS011;7542;49.078;9.194;2023-04-09T05:18:46;0.93;;;0.93;;
14900;SDS011;7542;49.078;9.194;2023-04-09T05:19:51;0.70;;;0.70;;
14900;SDS011;7542;49.078;9.194;2023-04-09T05:20:54;1.00;;;1.00;;
14900;SDS011;7542;49.078;9.194;2023-04-09T05:21:56;0.90;;;0.90;;
14900;SDS011;7542;49.078;9.194;2023-04-09T05:22:58;0.90;;;0.90;;
14900;SDS011;7542;49.078;9.194;2023-04-09T05:24:01;0.90;;;0.90;;
14900;SDS011;7542;49.078;9.194;2023-04-09T05:25:03;0.70;;;0.70;;
14900;SDS011;7542;49.078;9.194;2023-04-09T05:26:05;1.07;;;1.07;;
14900;SDS011;7542;49.078;9.194;2023-04-09T05:27:08;0.93;;;0.93;;
14900;SDS011;7542;49.078;9.194;2023-04-09T05:28:10;1.00;;;1.00;;
14900;SDS011;7542;49.078;9.194;2023-04-09T05:29:12;0.93;;;0.93;;
14900;SDS011;7542;49.078;9.194;2023-04-09T05:30:14;1.00;;;1.00;;
14900;SDS011;7542;49.078;9.194;2023-04-09T05:31:16;0.90;;;0.90;;
14900;SDS011;7542;49.078;9.194;2023-04-09T05:32:21;1.00;;;1.00;;
14900;SDS011;7542;49.078;9.194;2023-04-09T05:33:23;0.90;;;0.90;;
14900;SDS011;7542;49.078;9.194;2023-04-09T05:34:25;1.37;;;1.03;;
14900;SDS011;7542;49.078;9.194;2023-04-09T05:35:27;1.23;;;0.60;;
14900;SDS011;7542;49.078;9.194;2023-04-09T05:36:29;0.80;;;0.80;;
14900;SDS011;7542;49.078;9.194;2023-04-09T05:37:32;0.80;;;0.80;;
14900;SDS011;7542;49.078;9.194;2023-04-09T05:38:34;0.70;;;0.70;;
14900;SDS011;7542;49.078;9.194;2023-04-09T05:39:36;0.80;;;0.80;;
14900;SDS011;7542;49.078;9.194;2023-04-09T05:40:38;0.80;;;0.80;;
14900;SDS011;7542;49.078;9.194;2023-04-09T05:41:40;0.80;;;0.80;;
14900;SDS011;7542;49.078;9.194;2023-04-09T05:42:45;0.90;;;0.90;;
14900;SDS011;7542;49.078;9.194;2023-04-09T05:43:46;0.80;;;0.80;;
14900;SDS011;7542;49.078;9.194;2023-04-09T05:44:49;1.10;;;1.10;;
14900;SDS011;7542;49.078;9.194;2023-04-09T05:45:51;0.90;;;0.90;;
14900;SDS011;7542;49.078;9.194;2023-04-09T05:46:53;1.00;;;1.00;;
14900;SDS011;7542;49.078;9.194;2023-04-09T05:47:55;1.23;;;1.13;;
14900;SDS011;7542;49.078;9.194;2023-04-09T05:48:57;1.20;;;1.10;;
14900;SDS011;7542;49.078;9.194;2023-04-09T05:49:59;1.43;;;1.33;;
14900;SDS011;7542;49.078;9.194;2023-04-09T05:51:01;1.33;;;1.20;;
14900;SDS011;7542;49.078;9.194;2023-04-09T05:52:03;1.10;;;1.00;;
14900;SDS011;7542;49.078;9.194;2023-04-09T05:53:05;1.43;;;0.93;;
14900;SDS011;7542;49.078;9.194;2023-04-09T05:54:08;1.23;;;1.23;;
14900;SDS011;7542;49.078;9.194;2023-04-09T05:55:10;1.20;;;1.20;;
14900;SDS011;7542;49.078;9.194;2023-04-09T05:56:13;1.27;;;1.10;;
14900;SDS011;7542;49.078;9.194;2023-04-09T05:57:16;1.53;;;1.00;;
14900;SDS011;7542;49.078;9.194;2023-04-09T05:58:18;1.37;;;1.27;;
14900;SDS011;7542;49.078;9.194;2023-04-09T05:59:21;1.77;;;1.27;;
14900;SDS011;7542;49.078;9.194;2023-04-09T06:00:23;2.50;;;1.37;;
14900;SDS011;7542;49.078;9.194;2023-04-09T06:01:25;1.13;;;1.13;;
14900;SDS011;7542;49.078;9.194;2023-04-09T06:02:28;1.07;;;1.00;;
14900;SDS011;7542;49.078;9.194;2023-04-09T06:03:30;1.07;;;1.07;;
14900;SDS011;7542;49.078;9.194;2023-04-09T06:04:32;1.70;;;1.00;;
14900;SDS011;7542;49.078;9.194;2023-04-09T06:05:34;1.30;;;1.30;;
14900;SDS011;7542;49.078;9.194;2023-04-09T06:06:38;1.00;;;1.00;;
14900;SDS011;7542;49.078;9.194;2023-04-09T06:07:40;1.37;;;1.37;;
14900;SDS011;7542;49.078;9.194;2023-04-09T06:08:42;1.03;;;1.03;;
14900;SDS011;7542;49.078;9.194;2023-04-09T06:09:45;1.50;;;1.40;;
14900;SDS011;7542;49.078;9.194;2023-04-09T06:10:47;0.93;;;0.93;;
14900;SDS011;7542;49.078;9.194;2023-04-09T06:11:49;1.13;;;1.13;;
14900;SDS011;7542;49.078;9.194;2023-04-09T06:12:51;1.47;;;1.47;;
14900;SDS011;7542;49.078;9.194;2023-04-09T06:13:53;1.17;;;1.17;;
14900;SDS011;7542;49.078;9.194;2023-04-09T06:14:55;1.33;;;1.10;;
14900;SDS011;7542;49.078;9.194;2023-04-09T06:15:57;1.30;;;1.20;;
14900;SDS011;7542;49.078;9.194;2023-04-09T06:17:04;1.50;;;1.50;;
14900;SDS011;7542;49.078;9.194;2023-04-09T06:18:06;1.23;;;1.23;;
14900;SDS011;7542;49.078;9.194;2023-04-09T06:19:08;1.40;;;1.30;;
14900;SDS011;7542;49.078;9.194;2023-04-09T06:20:10;1.33;;;1.23;;
14900;SDS011;7542;49.078;9.194;2023-04-09T06:21:12;2.53;;;1.40;;
14900;SDS011;7542;49.078;9.194;2023-04-09T06:22:16;1.70;;;1.60;;
14900;SDS011;7542;49.078;9.194;2023-04-09T06:23:18;1.90;;;1.40;;
14900;SDS011;7542;49.078;9.194;2023-04-09T06:24:20;1.33;;;1.30;;
14900;SDS011;7542;49.078;9.194;2023-04-09T06:25:22;1.50;;;1.50;;
14900;SDS011;7542;49.078;9.194;2023-04-09T06:26:24;1.30;;;1.30;;
14900;SDS011;7542;49.078;9.194;2023-04-09T06:27:27;2.80;;;1.47;;
14900;SDS011;7542;49.078;9.194;2023-04-09T06:28:29;1.40;;;1.40;;
14900;SDS011;7542;49.078;9.194;2023-04-09T06:29:32;1.30;;;1.30;;
14900;SDS011;7542;49.078;9.194;2023-04-09T06:30:34;1.50;;;1.40;;
14900;SDS011;7542;49.078;9.194;2023-04-09T06:31:37;1.60;;;1.50;;
14900;SDS011;7542;49.078;9.194;2023-04-09T06:32:40;1.33;;;1.33;;